createdAt,value
2017-11-09T00:01:08.372Z,50.20
2017-11-09T00:03:34.651Z,60.90
2017-11-09T00:06:00.857Z,55.80
2017-11-09T00:08:27.094Z,63.30
2017-11-09T00:10:53.369Z,45.03
2017-11-09T00:13:19.610Z,56.17
2017-11-09T00:15:45.876Z,54.97
2017-11-09T00:18:12.192Z,52.97
2017-11-09T00:20:38.439Z,50.93
2017-11-09T00:23:04.684Z,54.50
2017-11-09T00:25:30.953Z,52.77
2017-11-09T00:27:57.181Z,62.33
2017-11-09T00:30:23.493Z,48.57
2017-11-09T00:32:49.722Z,54.70
2017-11-09T00:35:15.943Z,46.87
2017-11-09T00:37:42.185Z,48.33
2017-11-09T00:40:08.455Z,52.70
2017-11-09T00:42:34.688Z,60.33
2017-11-09T00:45:00.914Z,48.27
2017-11-09T00:47:27.209Z,54.87
2017-11-09T00:49:53.527Z,57.50
2017-11-09T00:52:19.754Z,57.17
2017-11-09T00:54:46.020Z,48.80
2017-11-09T00:57:12.273Z,47.70
2017-11-09T00:59:38.501Z,60.17
2017-11-09T01:02:04.768Z,66.73
2017-11-09T01:04:31.009Z,60.57
2017-11-09T01:06:57.241Z,52.33
2017-11-09T01:09:23.528Z,45.03
2017-11-09T01:11:49.762Z,54.57
2017-11-09T01:14:16.015Z,46.00
2017-11-09T01:16:42.295Z,46.43
2017-11-09T01:19:08.525Z,49.00
2017-11-09T01:21:34.736Z,55.77
2017-11-09T01:24:01.029Z,53.60
2017-11-09T01:26:27.266Z,56.27
2017-11-09T01:28:53.522Z,63.10
2017-11-09T01:31:19.794Z,70.00
2017-11-09T01:33:46.031Z,66.57
2017-11-09T01:36:12.304Z,52.57
2017-11-09T01:38:38.571Z,59.70
2017-11-09T01:41:04.808Z,61.37
2017-11-09T01:43:31.049Z,60.13
2017-11-09T01:45:57.333Z,65.00
2017-11-09T01:48:23.580Z,64.10
2017-11-09T01:50:49.817Z,61.43
2017-11-09T01:53:16.072Z,59.30
2017-11-09T01:55:42.315Z,61.20
2017-11-09T01:58:08.545Z,72.37
2017-11-09T02:00:34.808Z,63.60
2017-11-09T02:03:01.041Z,65.57
2017-11-09T02:05:27.273Z,64.07
2017-11-09T02:07:53.544Z,61.90
2017-11-09T02:10:19.872Z,67.87
2017-11-09T02:12:46.104Z,58.53
2017-11-09T02:15:12.373Z,56.70
2017-11-09T02:17:38.616Z,54.50
2017-11-09T02:20:04.841Z,51.67
2017-11-09T02:22:31.080Z,52.60
2017-11-09T02:24:57.347Z,52.73
2017-11-09T02:27:23.654Z,47.20
2017-11-09T02:29:49.894Z,43.93
2017-11-09T02:32:16.160Z,44.43
2017-11-09T02:34:42.382Z,52.90
2017-11-09T02:37:08.607Z,49.50
2017-11-09T02:39:34.870Z,44.17
2017-11-09T02:42:01.122Z,34.20
2017-11-09T02:44:27.359Z,37.63
2017-11-09T02:46:53.646Z,36.60
2017-11-09T02:49:19.888Z,40.23
2017-11-09T02:51:46.139Z,52.97
2017-11-09T02:54:12.407Z,43.47
2017-11-09T02:56:38.637Z,49.30
2017-11-09T02:59:04.871Z,56.20
2017-11-09T03:01:31.143Z,52.20
2017-11-09T03:03:57.386Z,82.37
2017-11-09T03:06:23.809Z,61.97
2017-11-09T03:08:50.161Z,63.17
2017-11-09T03:11:16.404Z,60.47
2017-11-09T03:13:42.651Z,60.53
2017-11-09T03:16:08.943Z,66.70
2017-11-09T03:18:35.304Z,53.30
2017-11-09T03:21:01.531Z,73.97
2017-11-09T03:23:27.799Z,68.63
2017-11-09T03:25:54.018Z,68.10
2017-11-09T03:28:20.247Z,62.50
2017-11-09T03:30:46.512Z,55.97
2017-11-09T03:33:12.764Z,57.27
2017-11-09T03:35:39.010Z,63.17
2017-11-09T03:38:05.276Z,68.67
2017-11-09T03:40:31.506Z,61.03
2017-11-09T03:42:57.729Z,68.53
2017-11-09T03:45:24.001Z,71.20
2017-11-09T03:47:50.230Z,66.43
2017-11-09T03:50:16.489Z,64.17
2017-11-09T03:52:42.770Z,62.93
2017-11-09T03:55:09.119Z,61.13
2017-11-09T03:57:35.349Z,65.00
2017-11-09T04:00:01.637Z,70.27
2017-11-09T04:02:27.886Z,67.40
2017-11-09T04:04:54.112Z,68.33
2017-11-09T04:07:20.353Z,61.43
2017-11-09T04:09:46.591Z,63.70
2017-11-09T04:12:12.957Z,60.40
2017-11-09T04:14:39.232Z,63.00
2017-11-09T04:17:05.466Z,62.93
2017-11-09T04:19:31.698Z,59.33
2017-11-09T04:21:57.967Z,65.60
2017-11-09T04:24:24.196Z,66.03
2017-11-09T04:26:50.440Z,65.13
2017-11-09T04:29:16.751Z,70.17
2017-11-09T04:31:42.982Z,77.33
2017-11-09T04:34:09.204Z,67.77
2017-11-09T04:36:35.474Z,71.70
2017-11-09T04:39:01.714Z,81.70
2017-11-09T04:41:27.963Z,68.23
2017-11-09T04:43:54.254Z,73.50
2017-11-09T04:46:20.503Z,84.50
2017-11-09T04:48:46.726Z,77.03
2017-11-09T04:51:13.009Z,69.33
2017-11-09T04:53:39.230Z,68.43
2017-11-09T04:56:05.465Z,71.63
2017-11-09T04:58:31.760Z,73.07
2017-11-09T05:00:58.004Z,68.07
2017-11-09T05:03:24.230Z,65.93
2017-11-09T05:05:50.504Z,61.53
2017-11-09T05:08:16.732Z,79.70
2017-11-09T05:10:42.968Z,68.40
2017-11-09T05:13:09.239Z,71.47
2017-11-09T05:15:35.488Z,72.83
2017-11-09T05:18:01.738Z,79.30
2017-11-09T05:20:28.033Z,76.00
2017-11-09T05:22:54.262Z,72.93
2017-11-09T05:25:20.500Z,79.43
2017-11-09T05:27:46.783Z,70.57
2017-11-09T05:30:13.001Z,71.67
2017-11-09T05:32:39.242Z,69.80
2017-11-09T05:35:05.525Z,73.03
2017-11-09T05:37:31.771Z,71.23
2017-11-09T05:39:58.039Z,67.47
2017-11-09T05:42:24.305Z,65.63
2017-11-09T05:44:50.551Z,64.53
2017-11-09T05:47:16.801Z,65.53
2017-11-09T05:49:43.085Z,73.80
2017-11-09T05:52:09.321Z,83.67
2017-11-09T05:54:35.549Z,69.97
2017-11-09T05:57:01.898Z,65.90
2017-11-09T05:59:28.127Z,69.83
2017-11-09T06:01:54.371Z,69.67
2017-11-09T06:04:20.605Z,67.43
2017-11-09T06:06:46.840Z,67.43
2017-11-09T06:09:13.117Z,87.23
2017-11-09T06:11:39.353Z,82.37
2017-11-09T06:14:05.708Z,69.37
2017-11-09T06:16:31.986Z,81.20
2017-11-09T06:18:58.193Z,82.77
2017-11-09T06:21:24.466Z,79.30
2017-11-09T06:23:50.792Z,76.23
2017-11-09T06:26:17.189Z,81.13
2017-11-09T06:28:43.416Z,82.57
2017-11-09T06:31:09.709Z,60.90
2017-11-09T06:33:35.932Z,65.67
2017-11-09T06:36:02.182Z,71.13
2017-11-09T06:38:28.468Z,72.67
2017-11-09T06:40:54.755Z,63.80
2017-11-09T06:43:21.151Z,64.20
2017-11-09T06:45:47.417Z,65.10
2017-11-09T06:48:13.744Z,65.67
2017-11-09T06:50:39.987Z,76.80
2017-11-09T06:53:06.260Z,66.67
2017-11-09T06:55:32.600Z,64.67
2017-11-09T06:57:58.840Z,70.60
2017-11-09T07:00:25.091Z,72.70
2017-11-09T07:02:51.313Z,65.80
2017-11-09T07:05:17.557Z,58.73
2017-11-09T07:07:43.837Z,64.53
2017-11-09T07:10:10.216Z,65.23
2017-11-09T07:12:36.463Z,62.40
2017-11-09T07:15:02.786Z,72.77
2017-11-09T07:17:29.032Z,59.70
2017-11-09T07:19:55.279Z,66.60
2017-11-09T07:22:21.543Z,59.53
2017-11-09T07:24:47.772Z,70.83
2017-11-09T07:27:14.006Z,62.40
2017-11-09T07:29:40.305Z,55.23
2017-11-09T07:32:06.529Z,64.20
2017-11-09T07:34:32.767Z,54.37
2017-11-09T07:36:59.076Z,66.43
2017-11-09T07:39:25.308Z,59.83
2017-11-09T07:41:51.535Z,52.07
2017-11-09T07:44:17.804Z,68.60
2017-11-09T07:46:44.056Z,54.37
2017-11-09T07:49:10.306Z,54.23
2017-11-09T07:51:36.591Z,60.70
2017-11-09T07:54:02.948Z,59.97
2017-11-09T07:56:29.184Z,69.23
2017-11-09T07:58:55.469Z,76.40
2017-11-09T08:01:21.729Z,73.40
2017-11-09T08:03:47.976Z,62.60
2017-11-09T08:06:14.288Z,63.97
2017-11-09T08:08:40.552Z,69.00
2017-11-09T08:11:06.798Z,71.10
2017-11-09T08:13:33.182Z,82.83
2017-11-09T08:15:59.477Z,57.27
2017-11-09T08:18:25.736Z,71.07
2017-11-09T08:20:52.038Z,60.67
2017-11-09T08:23:18.420Z,54.83
2017-11-09T08:25:44.654Z,55.97
2017-11-09T08:28:10.959Z,61.63
2017-11-09T08:30:37.187Z,56.30
2017-11-09T08:33:03.455Z,53.60
2017-11-09T08:35:29.736Z,73.50
2017-11-09T08:37:55.975Z,49.67
2017-11-09T08:40:22.219Z,48.70
2017-11-09T08:42:48.505Z,49.07
2017-11-09T08:45:14.754Z,49.77
2017-11-09T08:47:40.993Z,48.67
2017-11-09T08:50:07.271Z,53.53
2017-11-09T08:52:33.514Z,39.70
2017-11-09T08:54:59.753Z,46.60
2017-11-09T08:57:26.042Z,45.30
2017-11-09T08:59:52.291Z,50.80
2017-11-09T09:02:18.531Z,53.57
2017-11-09T09:04:44.801Z,48.27
2017-11-09T09:07:11.030Z,44.13
2017-11-09T09:09:37.303Z,43.53
2017-11-09T09:12:03.594Z,50.03
2017-11-09T09:14:29.841Z,48.63
2017-11-09T09:16:56.078Z,44.10
2017-11-09T09:19:22.357Z,43.07
2017-11-09T09:21:48.606Z,35.50
2017-11-09T09:24:14.836Z,39.13
2017-11-09T09:26:41.117Z,35.40
2017-11-09T09:29:07.380Z,37.70
2017-11-09T09:31:33.612Z,36.03
2017-11-09T09:33:59.887Z,40.13
2017-11-09T09:36:26.285Z,36.83
2017-11-09T09:38:52.534Z,42.80
2017-11-09T09:41:18.792Z,34.37
2017-11-09T09:43:45.178Z,33.43
2017-11-09T09:46:11.409Z,39.40
2017-11-09T09:48:37.657Z,35.93
2017-11-09T09:51:03.925Z,38.53
2017-11-09T09:53:30.292Z,32.23
2017-11-09T09:55:56.517Z,31.07
2017-11-09T09:58:22.801Z,30.50
2017-11-09T10:00:49.053Z,31.30
2017-11-09T10:03:15.420Z,32.93
2017-11-09T10:05:41.689Z,39.60
2017-11-09T10:08:07.921Z,37.23
2017-11-09T10:10:34.168Z,39.93
2017-11-09T10:13:00.446Z,40.77
2017-11-09T10:15:26.684Z,45.50
2017-11-09T10:17:52.919Z,38.43
2017-11-09T10:20:19.193Z,38.63
2017-11-09T10:22:45.552Z,38.97
2017-11-09T10:25:11.809Z,30.90
2017-11-09T10:27:38.105Z,27.60
2017-11-09T10:30:04.337Z,35.37
2017-11-09T10:32:30.541Z,36.47
2017-11-09T10:34:56.844Z,42.53
2017-11-09T10:37:23.070Z,35.53
2017-11-09T10:39:49.322Z,37.97
2017-11-09T10:42:15.601Z,29.57
2017-11-09T10:44:41.847Z,24.97
2017-11-09T10:47:08.080Z,24.80
2017-11-09T10:49:34.353Z,31.43
2017-11-09T10:52:00.601Z,25.70
2017-11-09T10:54:26.861Z,27.70
2017-11-09T10:56:53.136Z,26.10
2017-11-09T10:59:19.372Z,20.30
2017-11-09T11:01:45.624Z,29.17
2017-11-09T11:04:11.913Z,20.37
2017-11-09T11:06:38.151Z,26.93
2017-11-09T11:09:04.388Z,23.33
2017-11-09T11:11:30.661Z,39.63
2017-11-09T11:13:56.921Z,29.87
2017-11-09T11:16:23.163Z,22.43
2017-11-09T11:18:49.435Z,23.60
2017-11-09T11:21:15.681Z,32.70
2017-11-09T11:23:41.934Z,28.53
2017-11-09T11:26:08.228Z,27.83
2017-11-09T11:28:34.468Z,31.27
2017-11-09T11:31:00.712Z,38.60
2017-11-09T11:33:26.996Z,27.60
2017-11-09T11:35:53.228Z,36.80
2017-11-09T11:38:19.561Z,52.00
2017-11-09T11:40:45.855Z,24.77
2017-11-09T11:43:12.096Z,27.87
2017-11-09T11:45:38.329Z,33.27
2017-11-09T11:48:04.598Z,24.13
2017-11-09T11:50:30.842Z,31.67
2017-11-09T11:52:57.072Z,24.07
2017-11-09T11:55:23.348Z,23.90
2017-11-09T11:57:49.595Z,30.13
2017-11-09T12:00:15.841Z,27.83
2017-11-09T12:02:42.125Z,24.40
2017-11-09T12:05:08.343Z,31.33
2017-11-09T12:07:34.582Z,25.90
2017-11-09T12:10:00.871Z,36.43
2017-11-09T12:12:27.211Z,23.27
2017-11-09T12:14:53.464Z,28.00
2017-11-09T12:17:19.741Z,26.07
2017-11-09T12:19:45.978Z,25.90
2017-11-09T12:22:12.225Z,36.10
2017-11-09T12:24:38.515Z,25.47
2017-11-09T12:27:04.751Z,27.10
2017-11-09T12:29:30.988Z,24.23
2017-11-09T12:31:57.279Z,23.23
2017-11-09T12:34:23.533Z,31.13
2017-11-09T12:36:49.856Z,25.40
2017-11-09T12:39:16.136Z,28.43
2017-11-09T12:41:42.386Z,24.73
2017-11-09T12:44:08.646Z,23.67
2017-11-09T12:46:34.927Z,20.27
2017-11-09T12:49:01.162Z,27.37
2017-11-09T12:51:27.398Z,29.30
2017-11-09T12:53:53.667Z,20.40
2017-11-09T12:56:19.902Z,22.57
2017-11-09T12:58:46.129Z,21.80
2017-11-09T13:01:12.387Z,16.70
2017-11-09T13:03:38.604Z,20.03
2017-11-09T13:06:04.819Z,35.83
2017-11-09T13:08:31.092Z,25.10
2017-11-09T13:10:57.475Z,27.23
2017-11-09T13:13:23.713Z,30.70
2017-11-09T13:15:49.994Z,25.40
2017-11-09T13:18:16.360Z,24.90
2017-11-09T13:20:42.599Z,28.03
2017-11-09T13:23:08.876Z,26.73
2017-11-09T13:25:35.122Z,33.83
2017-11-09T13:28:01.362Z,28.57
2017-11-09T13:30:27.661Z,29.20
2017-11-09T13:32:53.894Z,30.43
2017-11-09T13:35:20.152Z,28.03
2017-11-09T13:37:46.414Z,35.10
2017-11-09T13:40:12.656Z,30.83
2017-11-09T13:42:38.893Z,30.30
2017-11-09T13:45:05.200Z,28.70
2017-11-09T13:47:31.440Z,31.37
2017-11-09T13:49:57.688Z,31.53
2017-11-09T13:52:23.977Z,36.90
2017-11-09T13:54:50.214Z,33.80
2017-11-09T13:57:16.442Z,29.30
2017-11-09T13:59:42.707Z,29.43
2017-11-09T14:02:08.946Z,38.60
2017-11-09T14:04:35.176Z,31.50
2017-11-09T14:07:01.443Z,38.60
2017-11-09T14:09:27.684Z,42.70
2017-11-09T14:11:53.911Z,57.10
2017-11-09T14:14:20.224Z,41.23
2017-11-09T14:16:46.561Z,42.93
2017-11-09T14:19:12.793Z,68.63
2017-11-09T14:21:39.074Z,40.30
2017-11-09T14:24:05.290Z,50.43
2017-11-09T14:26:31.535Z,44.87
2017-11-09T14:28:57.816Z,41.80
2017-11-09T14:31:24.297Z,34.90
2017-11-09T14:33:50.738Z,57.10
2017-11-09T14:36:17.415Z,32.90
2017-11-09T14:38:44.048Z,40.70
2017-11-09T14:41:10.440Z,54.53
2017-11-09T14:43:36.881Z,61.57
2017-11-09T14:46:03.302Z,33.63
2017-11-09T14:48:29.589Z,46.10
2017-11-09T14:50:56.016Z,51.45
2017-11-09T14:53:22.660Z,44.07
2017-11-09T14:55:49.267Z,48.10
2017-11-09T14:58:15.929Z,51.20
2017-11-09T15:00:42.551Z,52.30
2017-11-09T15:03:09.003Z,48.17
2017-11-09T15:05:35.510Z,43.00
2017-11-09T15:08:01.927Z,139.77
2017-11-09T15:10:28.345Z,50.17
2017-11-09T15:12:54.766Z,59.03
2017-11-09T15:15:21.352Z,43.27
2017-11-09T15:17:47.608Z,50.70
2017-11-09T15:20:14.241Z,41.33
2017-11-09T15:22:40.857Z,38.80
2017-11-09T15:25:07.106Z,33.10
2017-11-09T15:27:33.748Z,31.27
2017-11-09T15:30:00.255Z,41.00
2017-11-09T15:32:26.670Z,35.10
2017-11-09T15:34:53.114Z,44.03
2017-11-09T15:37:19.479Z,35.67
2017-11-09T15:39:46.097Z,37.10
2017-11-09T15:42:12.753Z,34.60
2017-11-09T15:44:39.192Z,25.80
2017-11-09T15:47:05.637Z,32.40
2017-11-09T15:49:32.216Z,32.50
2017-11-09T15:51:58.655Z,50.07
2017-11-09T15:54:25.077Z,53.27
2017-11-09T15:56:51.540Z,48.80
2017-11-09T15:59:17.959Z,45.60
2017-11-09T16:01:44.229Z,42.80
2017-11-09T16:04:10.500Z,38.60
2017-11-09T16:06:37.086Z,36.27
2017-11-09T16:09:03.529Z,36.30
2017-11-09T16:11:30.142Z,29.53
2017-11-09T16:13:56.422Z,29.60
2017-11-09T16:16:23.024Z,28.30
2017-11-09T16:18:49.519Z,32.20
2017-11-09T16:21:16.098Z,31.30
2017-11-09T16:23:42.728Z,31.70
2017-11-09T16:26:09.373Z,33.20
2017-11-09T16:28:35.860Z,27.80
2017-11-09T16:31:02.301Z,21.53
2017-11-09T16:33:28.843Z,50.43
2017-11-09T16:35:55.287Z,25.30
2017-11-09T16:38:21.706Z,48.63
2017-11-09T16:40:48.096Z,54.87
2017-11-09T16:43:14.398Z,32.37
2017-11-09T16:45:40.808Z,22.20
2017-11-09T16:48:07.482Z,42.00
2017-11-09T16:50:34.117Z,53.57
2017-11-09T16:53:00.633Z,47.83
2017-11-09T16:55:27.145Z,52.07
2017-11-09T16:57:53.422Z,38.20
2017-11-09T17:00:19.930Z,67.00
2017-11-09T17:02:46.349Z,51.73
2017-11-09T17:05:12.769Z,47.13
2017-11-09T17:07:39.355Z,37.57
2017-11-09T17:10:05.873Z,46.00
2017-11-09T17:12:32.291Z,45.93
2017-11-09T17:14:58.808Z,51.17
2017-11-09T17:17:25.088Z,37.40
2017-11-09T17:19:51.593Z,36.80
2017-11-09T17:22:17.956Z,41.93
2017-11-09T17:24:44.351Z,41.90
2017-11-09T17:27:10.823Z,39.83
2017-11-09T17:29:37.309Z,38.43
2017-11-09T17:32:03.752Z,33.10
2017-11-09T17:34:30.194Z,25.40
2017-11-09T17:36:56.611Z,28.33
2017-11-09T17:39:23.053Z,21.33
2017-11-09T17:41:49.470Z,17.77
2017-11-09T17:44:15.912Z,20.10
2017-11-09T17:46:42.450Z,26.60
2017-11-09T17:49:08.795Z,19.87
2017-11-09T17:51:35.214Z,23.43
2017-11-09T17:54:01.620Z,23.07
2017-11-09T17:56:28.227Z,29.27
2017-11-09T17:58:54.811Z,20.87
2017-11-09T18:01:21.479Z,22.00
2017-11-09T18:03:47.921Z,27.03
2017-11-09T18:06:14.365Z,25.87
2017-11-09T18:08:40.854Z,25.30
2017-11-09T18:11:07.309Z,19.73
2017-11-09T18:13:33.684Z,21.60
2017-11-09T18:16:00.310Z,22.03
2017-11-09T18:18:26.800Z,18.93
2017-11-09T18:20:53.178Z,22.83
2017-11-09T18:23:19.817Z,19.60
2017-11-09T18:25:46.529Z,38.27
2017-11-09T18:28:12.942Z,21.37
2017-11-09T18:30:39.487Z,23.93
2017-11-09T18:33:05.952Z,20.83
2017-11-09T18:35:32.566Z,21.90
2017-11-09T18:37:59.217Z,22.50
2017-11-09T18:40:25.463Z,29.70
2017-11-09T18:42:52.093Z,25.83
2017-11-09T18:45:18.606Z,26.40
2017-11-09T18:47:45.128Z,23.63
2017-11-09T18:50:11.402Z,33.10
2017-11-09T18:52:38.039Z,55.13
2017-11-09T18:55:04.268Z,30.47
2017-11-09T18:57:30.769Z,28.83
2017-11-09T18:59:57.187Z,24.70
2017-11-09T19:02:23.467Z,28.50
2017-11-09T19:04:49.915Z,27.90
2017-11-09T19:07:16.511Z,38.00
2017-11-09T19:09:42.929Z,32.73
2017-11-09T19:12:09.270Z,38.63
2017-11-09T19:14:35.668Z,43.70
2017-11-09T19:17:02.273Z,32.10
2017-11-09T19:19:28.797Z,32.83
2017-11-09T19:21:55.315Z,31.17
2017-11-09T19:24:21.753Z,46.20
2017-11-09T19:26:48.175Z,61.33
2017-11-09T19:29:14.852Z,75.90
2017-11-09T19:31:41.487Z,73.13
2017-11-09T19:34:07.713Z,71.13
2017-11-09T19:36:34.151Z,55.23
2017-11-09T19:39:00.783Z,27.60
2017-11-09T19:41:27.418Z,34.53
2017-11-09T19:43:53.858Z,27.33
2017-11-09T19:46:20.497Z,37.63
2017-11-09T19:48:47.021Z,35.43
2017-11-09T19:51:13.414Z,35.40
2017-11-09T19:53:40.001Z,41.97
2017-11-09T19:56:06.404Z,30.30
2017-11-09T19:58:32.849Z,31.83
2017-11-09T20:00:59.503Z,37.43
2017-11-09T20:03:26.151Z,37.87
2017-11-09T20:05:52.583Z,38.90
2017-11-09T20:08:18.998Z,30.70
2017-11-09T20:10:45.454Z,42.03
2017-11-09T20:13:12.063Z,46.47
2017-11-09T20:15:38.683Z,49.63
2017-11-09T20:18:05.103Z,35.90
2017-11-09T20:20:31.545Z,47.40
2017-11-09T20:22:57.964Z,48.70
2017-11-09T20:25:24.331Z,61.57
2017-11-09T20:27:50.683Z,50.17
2017-11-09T20:30:17.328Z,46.60
2017-11-09T20:32:43.743Z,50.37
2017-11-09T20:35:09.974Z,38.43
2017-11-09T20:37:36.445Z,54.13
2017-11-09T20:40:03.019Z,42.17
2017-11-09T20:42:29.694Z,44.97
2017-11-09T20:44:56.132Z,60.23
2017-11-09T20:47:22.557Z,36.23
2017-11-09T20:49:49.178Z,37.00
2017-11-09T20:52:15.597Z,33.50
2017-11-09T20:54:41.847Z,37.90
2017-11-09T20:57:08.187Z,39.93
2017-11-09T20:59:34.616Z,43.53
2017-11-09T21:02:00.850Z,39.60
2017-11-09T21:04:27.115Z,37.30
2017-11-09T21:06:53.344Z,40.40
2017-11-09T21:09:19.573Z,34.33
2017-11-09T21:11:45.843Z,33.23
2017-11-09T21:14:12.090Z,34.53
2017-11-09T21:16:38.433Z,33.83
2017-11-09T21:19:04.696Z,35.03
2017-11-09T21:21:30.921Z,28.27
2017-11-09T21:23:57.146Z,24.27
2017-11-09T21:26:23.445Z,22.20
2017-11-09T21:28:52.521Z,28.63
2017-11-09T21:31:18.782Z,20.37
2017-11-09T21:33:45.059Z,19.63
2017-11-09T21:36:11.277Z,31.87
2017-11-09T21:38:37.659Z,29.30
2017-11-09T21:41:04.159Z,26.67
2017-11-09T21:43:30.389Z,30.90
2017-11-09T21:45:56.946Z,52.90
2017-11-09T21:48:23.605Z,38.50
2017-11-09T21:50:50.231Z,35.73
2017-11-09T21:53:16.727Z,42.10
2017-11-09T21:55:43.110Z,30.90
2017-11-09T21:58:09.486Z,35.33
2017-11-09T22:00:35.935Z,41.93
2017-11-09T22:03:02.221Z,39.17
2017-11-09T22:05:28.457Z,42.47
2017-11-09T22:07:54.666Z,44.47
2017-11-09T22:10:20.939Z,44.33
2017-11-09T22:12:47.303Z,40.80
2017-11-09T22:15:13.551Z,34.77
2017-11-09T22:17:39.792Z,40.53
2017-11-09T22:20:06.022Z,32.67
2017-11-09T22:22:32.239Z,43.13
2017-11-09T22:24:58.517Z,34.07
2017-11-09T22:27:24.764Z,39.70
2017-11-09T22:29:50.982Z,33.30
2017-11-09T22:32:17.247Z,32.47
2017-11-09T22:34:43.472Z,38.40
2017-11-09T22:37:09.715Z,27.07
2017-11-09T22:39:35.984Z,36.63
2017-11-09T22:42:02.214Z,39.40
2017-11-09T22:44:28.426Z,35.03
2017-11-09T22:46:54.707Z,29.27
2017-11-09T22:49:20.918Z,34.43
2017-11-09T22:51:47.162Z,27.07
2017-11-09T22:54:13.441Z,23.90
2017-11-09T22:56:39.667Z,29.90
2017-11-09T22:59:05.885Z,30.67
2017-11-09T23:01:32.143Z,24.40
2017-11-09T23:03:58.384Z,37.30
2017-11-09T23:06:24.768Z,30.70
2017-11-09T23:08:51.051Z,39.90
2017-11-09T23:11:17.409Z,45.10
2017-11-09T23:13:43.635Z,38.53
2017-11-09T23:16:10.078Z,32.33
2017-11-09T23:18:36.303Z,31.20
2017-11-09T23:21:02.544Z,29.53
2017-11-09T23:23:28.847Z,33.80
2017-11-09T23:25:55.074Z,30.33
2017-11-09T23:28:21.421Z,39.47
2017-11-09T23:30:47.687Z,34.83
2017-11-09T23:33:13.971Z,32.37
2017-11-09T23:35:40.203Z,43.43
2017-11-09T23:38:06.461Z,37.30
2017-11-09T23:40:32.684Z,41.80
2017-11-09T23:42:59.014Z,42.63
2017-11-09T23:45:25.288Z,46.37
2017-11-09T23:47:51.502Z,42.40
2017-11-09T23:50:17.724Z,40.97
2017-11-09T23:52:43.979Z,47.23
2017-11-09T23:55:10.237Z,54.70
2017-11-09T23:57:36.451Z,47.07
